Time;durP1;ratioP1;P1;durP2;ratioP2;P2;SDS_P1;SDS_P2;PMS_P1;PMS_P2;Temp;Humidity;BMP_temperature;BMP_pressure;BME280_temperature;BME280_humidity;BME280_pressure;Samples;Min_cycle;Max_cycle;Signal;HPM_P1;HPM_P2
2022/07/02 00:00:49;;;;;;;3.45;1.50;;;15.90;99.90;;;;;;5011481;28;20022;-50
2022/07/02 00:03:16;;;;;;;2.17;1.60;;;15.80;99.90;;;;;;5011895;28;20044;-51
2022/07/02 00:05:47;;;;;;;3.65;2.63;;;15.70;99.90;;;;;;5011484;28;20040;-46
2022/07/02 00:08:16;;;;;;;3.60;1.80;;;15.70;99.90;;;;;;5011483;28;20041;-49
2022/07/02 00:10:43;;;;;;;7.63;1.95;;;15.70;99.90;;;;;;5011647;28;20030;-48
2022/07/02 00:13:08;;;;;;;3.05;2.00;;;15.70;99.90;;;;;;5011727;28;20125;-50
2022/07/02 00:15:34;;;;;;;4.22;2.00;;;15.70;99.90;;;;;;4993706;28;20109;-52
2022/07/02 00:18:00;;;;;;;4.68;2.22;;;15.70;99.90;;;;;;5015236;28;20509;-49
2022/07/02 00:20:25;;;;;;;2.90;2.22;;;15.70;99.90;;;;;;5018182;28;20425;-52
2022/07/02 00:22:53;;;;;;;2.15;1.77;;;15.60;99.90;;;;;;5018009;28;20476;-49
2022/07/02 00:25:19;;;;;;;6.57;2.30;;;15.60;99.90;;;;;;5017984;28;20366;-47
2022/07/02 00:27:45;;;;;;;5.82;2.05;;;15.60;99.90;;;;;;5017389;28;20048;-50
2022/07/02 00:30:14;;;;;;;2.75;1.80;;;15.50;99.90;;;;;;5017880;28;20038;-51
2022/07/02 00:32:42;;;;;;;6.03;1.88;;;15.50;99.90;;;;;;5018522;28;20030;-48
2022/07/02 00:35:11;;;;;;;3.25;1.50;;;15.50;99.90;;;;;;5017930;28;20018;-51
2022/07/02 00:37:37;;;;;;;6.20;2.13;;;15.50;99.90;;;;;;5017248;28;20036;-49
2022/07/02 00:40:07;;;;;;;3.40;1.90;;;15.50;99.90;;;;;;5018225;28;20104;-48
2022/07/02 00:42:35;;;;;;;2.33;1.83;;;15.50;99.90;;;;;;5017680;28;20398;-48
2022/07/02 00:45:01;;;;;;;2.72;2.22;;;15.40;99.90;;;;;;5017900;28;20037;-50
2022/07/02 00:47:29;;;;;;;2.67;1.88;;;15.40;99.90;;;;;;5017140;28;20072;-50
2022/07/02 00:49:55;;;;;;;4.80;2.00;;;15.40;99.90;;;;;;5017896;28;20026;-50
2022/07/02 00:52:22;;;;;;;2.92;1.77;;;15.30;99.90;;;;;;5017673;28;20563;-49
2022/07/02 00:54:47;;;;;;;3.08;2.00;;;15.30;99.90;;;;;;5017696;28;20022;-51
2022/07/02 00:57:13;;;;;;;3.05;1.75;;;15.30;99.90;;;;;;5016863;28;20426;-49
2022/07/02 00:59:39;;;;;;;2.30;1.42;;;15.30;99.90;;;;;;5017775;28;20084;-47
2022/07/02 01:02:08;;;;;;;3.67;1.77;;;15.30;99.90;;;;;;5017753;28;20037;-53
2022/07/02 01:07:07;;;;;;;2.28;1.88;;;15.40;99.90;;;;;;5014924;28;20263;-55
2022/07/02 01:12:25;;;;;;;2.25;1.70;;;15.40;99.90;;;;;;5017473;28;20064;-55
2022/07/02 01:14:52;;;;;;;3.58;1.67;;;15.40;99.90;;;;;;5017562;28;20026;-52
2022/07/02 01:17:18;;;;;;;2.75;1.50;;;15.40;99.90;;;;;;4999162;28;20026;-57
2022/07/02 01:19:44;;;;;;;2.70;1.75;;;15.40;99.90;;;;;;5017599;28;20088;-54
2022/07/02 01:22:18;;;;;;;1.73;1.63;;;15.40;99.90;;;;;;5017730;28;20129;-54
2022/07/02 01:24:46;;;;;;;4.95;1.70;;;15.40;99.90;;;;;;5017612;28;20517;-53
2022/07/02 01:27:12;;;;;;;5.75;1.92;;;15.40;99.90;;;;;;4998990;28;20037;-52
2022/07/02 01:29:38;;;;;;;7.10;2.00;;;15.40;99.90;;;;;;5013956;28;20060;-56
2022/07/02 01:32:04;;;;;;;8.93;3.17;;;15.30;99.90;;;;;;5014323;28;20045;-57
2022/07/02 01:34:36;;;;;;;2.50;2.00;;;15.30;99.90;;;;;;5014090;28;20053;-56
2022/07/02 01:37:02;;;;;;;5.38;2.17;;;15.30;99.90;;;;;;5013667;28;20529;-56
2022/07/02 01:39:28;;;;;;;2.92;2.08;;;15.30;99.90;;;;;;5014124;28;20482;-56
2022/07/02 01:41:53;;;;;;;4.05;2.35;;;15.30;99.90;;;;;;5014364;28;20080;-55
2022/07/02 01:44:19;;;;;;;3.70;2.10;;;15.30;99.90;;;;;;5014188;28;20053;-57
2022/07/02 01:46:45;;;;;;;7.53;1.98;;;15.30;99.90;;;;;;5013732;28;20022;-55
2022/07/02 01:49:11;;;;;;;2.60;2.20;;;15.30;99.90;;;;;;5013734;28;20121;-53
2022/07/02 01:51:37;;;;;;;2.35;1.90;;;15.30;99.90;;;;;;4996441;28;20473;-54
2022/07/02 01:54:03;;;;;;;7.00;2.00;;;15.20;99.90;;;;;;4996330;28;20110;-56
2022/07/02 01:56:34;;;;;;;4.50;1.67;;;15.20;99.90;;;;;;5013870;28;20026;-54
2022/07/02 01:59:00;;;;;;;3.45;1.60;;;15.20;99.90;;;;;;4995756;28;20029;-54
2022/07/02 02:01:25;;;;;;;2.33;1.85;;;15.10;99.90;;;;;;4996342;28;20129;-55
2022/07/02 02:03:51;;;;;;;3.92;2.28;;;15.10;99.90;;;;;;4996344;28;20026;-54
2022/07/02 02:06:16;;;;;;;4.68;1.83;;;15.10;99.90;;;;;;5013310;28;20029;-55
2022/07/02 02:08:42;;;;;;;5.53;2.10;;;15.10;99.90;;;;;;5013070;28;20041;-57
2022/07/02 02:11:07;;;;;;;6.38;2.15;;;15.00;99.90;;;;;;5013400;28;20422;-51
2022/07/02 02:13:33;;;;;;;4.50;2.15;;;15.00;99.90;;;;;;4996108;28;20037;-54
2022/07/02 02:15:58;;;;;;;3.05;2.20;;;15.00;99.90;;;;;;5013413;28;20033;-57
2022/07/02 02:18:24;;;;;;;2.65;1.60;;;15.00;99.90;;;;;;5012709;28;20022;-54
2022/07/02 02:20:49;;;;;;;5.50;2.03;;;15.00;99.90;;;;;;5013467;28;20251;-52
2022/07/02 02:23:15;;;;;;;2.35;2.15;;;15.00;99.90;;;;;;4995967;28;20034;-57
2022/07/02 02:25:41;;;;;;;4.07;1.58;;;15.00;99.90;;;;;;5013322;28;20541;-55
2022/07/02 02:28:06;;;;;;;5.63;1.90;;;14.90;99.90;;;;;;5013061;28;20105;-49
2022/07/02 02:30:31;;;;;;;2.53;2.30;;;14.90;99.90;;;;;;5013340;28;20482;-52
2022/07/02 02:32:57;;;;;;;2.45;2.25;;;14.80;99.90;;;;;;5013074;28;20443;-57
2022/07/02 02:35:23;;;;;;;5.82;2.60;;;14.80;99.90;;;;;;5013022;28;20028;-55
2022/07/02 02:37:48;;;;;;;9.10;3.42;;;14.80;99.90;;;;;;5012559;28;20048;-54
2022/07/02 02:40:14;;;;;;;6.07;2.40;;;14.70;99.90;;;;;;5012970;28;20434;-57
2022/07/02 02:42:39;;;;;;;3.17;1.80;;;14.70;99.90;;;;;;5013118;28;20108;-56
2022/07/02 02:45:05;;;;;;;4.05;2.17;;;14.60;99.90;;;;;;5013112;28;20029;-56
2022/07/02 02:47:31;;;;;;;5.47;2.30;;;14.60;99.90;;;;;;5012325;28;20105;-52
2022/07/02 02:49:56;;;;;;;2.35;2.10;;;14.60;99.90;;;;;;5013510;28;20113;-53
2022/07/02 02:52:22;;;;;;;6.10;2.75;;;14.60;99.90;;;;;;5013129;28;20086;-54
2022/07/02 02:54:47;;;;;;;4.68;1.70;;;14.60;99.90;;;;;;5010963;28;20052;-52
2022/07/02 02:57:13;;;;;;;2.53;1.90;;;14.60;99.90;;;;;;5011504;28;20113;-48
2022/07/02 02:59:39;;;;;;;2.10;1.90;;;14.60;99.90;;;;;;5012900;28;20169;-54
2022/07/02 03:02:04;;;;;;;6.63;2.38;;;14.60;99.90;;;;;;5012196;28;20064;-57
2022/07/02 03:04:30;;;;;;;4.38;2.03;;;14.60;99.90;;;;;;5012594;28;20041;-56
2022/07/02 03:06:55;;;;;;;6.13;2.83;;;14.60;99.90;;;;;;5011695;28;20041;-52
2022/07/02 03:09:21;;;;;;;5.63;2.28;;;14.50;99.90;;;;;;5012397;28;20032;-58
2022/07/02 03:11:46;;;;;;;2.90;2.67;;;14.50;99.90;;;;;;5012253;28;20072;-52
2022/07/02 03:14:12;;;;;;;5.47;2.40;;;14.50;99.90;;;;;;5012630;28;20021;-54
2022/07/02 03:16:37;;;;;;;2.72;2.22;;;14.50;99.90;;;;;;5012418;28;20034;-56
2022/07/02 03:19:03;;;;;;;3.58;2.50;;;14.40;99.90;;;;;;5011715;28;20401;-55
2022/07/02 03:21:28;;;;;;;5.07;2.22;;;14.40;99.90;;;;;;5013176;28;20045;-51
2022/07/02 03:23:54;;;;;;;3.72;2.58;;;14.40;99.90;;;;;;5013101;28;20030;-58
2022/07/02 03:26:20;;;;;;;6.80;2.60;;;14.40;99.90;;;;;;4995036;28;20029;-55
2022/07/02 03:28:45;;;;;;;3.28;2.28;;;14.50;99.90;;;;;;5012326;28;20508;-54
2022/07/02 03:31:11;;;;;;;3.63;2.38;;;14.50;99.90;;;;;;5012453;28;20482;-56
2022/07/02 03:33:38;;;;;;;3.97;2.40;;;14.50;99.90;;;;;;5012138;28;20113;-53
2022/07/02 03:36:03;;;;;;;3.22;2.05;;;14.50;99.90;;;;;;5012310;28;20053;-54
2022/07/02 03:38:29;;;;;;;6.68;2.20;;;14.40;99.90;;;;;;5011541;28;20053;-55
2022/07/02 03:40:54;;;;;;;2.15;1.85;;;14.40;99.90;;;;;;5012406;28;20100;-53
2022/07/02 03:43:20;;;;;;;2.78;2.00;;;14.40;99.90;;;;;;5012180;28;20494;-57
2022/07/02 03:45:45;;;;;;;5.47;2.47;;;14.40;99.90;;;;;;5012042;28;20037;-57
2022/07/02 03:48:11;;;;;;;7.93;2.45;;;14.40;99.90;;;;;;5011194;28;20022;-54
2022/07/02 03:50:38;;;;;;;5.50;1.92;;;14.30;99.90;;;;;;5011892;28;20378;-49
2022/07/02 03:53:04;;;;;;;2.92;2.17;;;14.30;99.90;;;;;;5011262;28;20037;-56
2022/07/02 03:55:30;;;;;;;2.00;1.90;;;14.30;99.90;;;;;;5011867;28;20075;-55
2022/07/02 03:57:55;;;;;;;3.92;2.08;;;14.40;99.90;;;;;;5011146;28;20108;-57
2022/07/02 04:00:21;;;;;;;2.95;1.83;;;14.40;99.90;;;;;;5011786;28;20033;-53
2022/07/02 04:02:46;;;;;;;8.52;2.42;;;14.40;99.90;;;;;;5011714;28;20026;-54
2022/07/02 04:05:12;;;;;;;3.25;2.22;;;14.40;99.90;;;;;;5011247;28;20119;-56
2022/07/02 04:07:38;;;;;;;3.25;2.15;;;14.30;99.90;;;;;;5011183;28;20034;-55
2022/07/02 04:10:04;;;;;;;5.20;2.95;;;14.40;99.90;;;;;;4994115;28;20029;-54
2022/07/02 04:12:29;;;;;;;3.33;2.53;;;14.40;99.90;;;;;;5011529;28;20037;-50
2022/07/02 04:14:55;;;;;;;3.30;2.08;;;14.40;99.90;;;;;;4993940;28;20030;-55
2022/07/02 04:17:20;;;;;;;2.00;1.85;;;14.50;99.90;;;;;;5010714;28;20393;-54
2022/07/02 04:19:46;;;;;;;6.47;2.10;;;14.50;99.90;;;;;;5011583;28;20034;-54
2022/07/02 04:22:11;;;;;;;6.10;2.47;;;14.50;99.90;;;;;;5011648;28;20509;-56
2022/07/02 04:24:37;;;;;;;3.53;2.17;;;14.50;99.90;;;;;;5011460;28;20105;-50
2022/07/02 04:27:03;;;;;;;2.65;2.28;;;14.50;99.90;;;;;;5010837;28;20030;-56
2022/07/02 04:29:28;;;;;;;8.85;2.65;;;14.50;99.90;;;;;;5011675;28;20053;-55
2022/07/02 04:31:54;;;;;;;5.00;2.60;;;14.60;99.90;;;;;;5012050;28;20152;-56
2022/07/02 04:34:19;;;;;;;5.22;2.13;;;14.70;99.90;;;;;;4994839;28;20018;-56
2022/07/02 04:36:45;;;;;;;2.65;2.38;;;14.90;99.90;;;;;;5012025;28;20074;-55
2022/07/02 04:39:10;;;;;;;3.88;2.40;;;15.00;99.90;;;;;;5011719;28;20030;-55
2022/07/02 04:41:36;;;;;;;3.60;2.20;;;15.10;99.90;;;;;;5011618;28;20044;-52
2022/07/02 04:44:01;;;;;;;2.90;2.15;;;15.10;99.90;;;;;;5011571;28;20116;-56
2022/07/02 04:46:27;;;;;;;3.83;2.60;;;15.30;99.90;;;;;;5011040;28;20041;-54
2022/07/02 04:48:52;;;;;;;3.08;2.03;;;15.40;99.90;;;;;;5010793;28;20508;-57
2022/07/02 04:51:18;;;;;;;6.45;2.63;;;15.60;99.90;;;;;;5011067;28;20038;-56
2022/07/02 04:53:44;;;;;;;3.38;2.40;;;15.70;99.90;;;;;;5011452;28;20374;-55
2022/07/02 04:56:09;;;;;;;3.45;2.17;;;15.90;99.90;;;;;;5009317;28;20030;-56
2022/07/02 04:58:35;;;;;;;7.55;2.90;;;16.20;99.90;;;;;;5010574;28;20030;-54
2022/07/02 05:01:01;;;;;;;5.68;2.22;;;16.70;99.90;;;;;;5011210;28;20029;-57
2022/07/02 05:03:26;;;;;;;2.58;2.38;;;17.10;99.90;;;;;;5012538;28;20488;-58
2022/07/02 05:05:52;;;;;;;2.05;1.90;;;17.80;99.90;;;;;;5014718;28;20038;-51
2022/07/02 05:08:24;;;;;;;4.38;2.40;;;18.50;99.90;;;;;;5014051;28;20033;-54
2022/07/02 05:10:49;;;;;;;4.07;2.10;;;19.20;99.90;;;;;;5014755;28;20026;-53
2022/07/02 05:13:15;;;;;;;5.30;2.67;;;19.80;99.90;;;;;;5014609;28;20037;-56
2022/07/02 05:15:40;;;;;;;2.58;2.33;;;20.20;99.90;;;;;;5014616;28;20022;-56
2022/07/02 05:18:06;;;;;;;3.55;2.05;;;20.50;99.90;;;;;;4996401;28;20021;-53
2022/07/02 05:20:31;;;;;;;7.65;2.55;;;20.70;99.90;;;;;;5009865;28;20482;-52
2022/07/02 05:22:57;;;;;;;7.25;3.67;;;20.80;99.90;;;;;;5014662;28;20092;-53
2022/07/02 05:25:22;;;;;;;4.57;2.28;;;21.00;99.90;;;;;;5014340;28;20033;-54
2022/07/02 05:27:48;;;;;;;2.72;2.10;;;21.20;99.90;;;;;;5013426;28;20026;-54
2022/07/02 05:30:13;;;;;;;2.80;1.85;;;21.40;99.90;;;;;;5014522;28;20042;-54
2022/07/02 05:32:39;;;;;;;2.28;1.92;;;21.70;99.90;;;;;;5014408;28;20038;-52
2022/07/02 05:35:04;;;;;;;3.20;1.55;;;22.00;99.90;;;;;;5014216;28;20375;-56
2022/07/02 05:37:30;;;;;;;4.30;2.10;;;22.20;98.90;;;;;;5009225;28;20022;-54
2022/07/02 05:39:55;;;;;;;2.50;1.95;;;22.50;99.10;;;;;;5013308;28;20022;-55
2022/07/02 05:42:21;;;;;;;2.53;1.67;;;22.70;98.10;;;;;;5017769;28;20048;-57
2022/07/02 05:44:46;;;;;;;3.22;2.20;;;22.80;98.10;;;;;;5014225;28;20116;-56
2022/07/02 05:47:12;;;;;;;3.65;1.92;;;22.80;97.40;;;;;;4999674;28;20022;-58
2022/07/02 05:49:37;;;;;;;4.45;2.10;;;22.90;97.60;;;;;;5012585;28;20480;-54
2022/07/02 05:52:03;;;;;;;6.13;2.00;;;23.10;97.20;;;;;;5013551;28;20061;-56
2022/07/02 05:54:28;;;;;;;3.42;2.83;;;23.20;97.70;;;;;;5011979;28;20478;-57
2022/07/02 05:56:54;;;;;;;6.05;1.70;;;23.60;97.10;;;;;;5004717;28;20038;-58
2022/07/02 05:59:21;;;;;;;3.13;1.98;;;23.60;96.00;;;;;;4992757;28;20029;-58
2022/07/02 06:01:47;;;;;;;2.70;1.65;;;23.50;96.20;;;;;;4994501;28;20106;-56
2022/07/02 06:04:12;;;;;;;4.82;2.20;;;23.70;96.00;;;;;;4994689;28;20105;-60
2022/07/02 06:09:22;;;;;;;2.53;2.08;;;24.40;95.50;;;;;;5012708;28;20037;-58
2022/07/02 06:11:47;;;;;;;3.85;2.05;;;24.30;95.10;;;;;;5013689;28;20038;-60
2022/07/02 06:14:13;;;;;;;4.95;2.17;;;24.40;95.20;;;;;;5013465;28;20033;-59
2022/07/02 06:16:39;;;;;;;3.83;2.05;;;24.60;95.30;;;;;;5013035;28;20153;-59
2022/07/02 06:19:06;;;;;;;3.53;1.92;;;25.00;94.50;;;;;;5012755;28;20025;-60
2022/07/02 06:21:33;;;;;;;5.10;1.90;;;25.30;93.90;;;;;;5013658;28;20083;-60
2022/07/02 06:23:58;;;;;;;6.75;2.10;;;25.50;93.40;;;;;;5013258;28;20450;-57
2022/07/02 06:26:23;;;;;;;2.75;2.28;;;25.60;92.80;;;;;;5013513;28;20161;-59
2022/07/02 06:28:49;;;;;;;1.92;1.65;;;25.90;92.70;;;;;;5012661;28;20032;-61
2022/07/02 06:31:14;;;;;;;3.38;1.88;;;26.10;92.20;;;;;;4995783;28;20030;-60
2022/07/02 06:33:41;;;;;;;2.33;2.08;;;26.50;92.10;;;;;;5013855;28;20033;-58
2022/07/02 06:36:10;;;;;;;4.20;2.55;;;26.60;91.20;;;;;;5013397;28;20028;-56
2022/07/02 06:38:37;;;;;;;3.70;1.98;;;27.00;90.80;;;;;;5012525;28;20100;-57
2022/07/02 06:42:18;;;;;;;2.50;1.60;;;27.50;89.90;;;;;;5013148;28;20030;-61
2022/07/02 06:43:48;;;;;;;2.22;1.92;;;27.20;90.20;;;;;;5013055;28;20038;-59
2022/07/02 06:46:14;;;;;;;6.40;2.10;;;26.90;90.20;;;;;;4995250;28;20034;-58
2022/07/02 06:48:40;;;;;;;5.82;1.73;;;26.90;90.00;;;;;;5012636;28;20403;-56
2022/07/02 06:51:05;;;;;;;4.40;1.92;;;27.30;88.80;;;;;;5013148;28;20112;-60
2022/07/02 06:53:30;;;;;;;3.78;2.05;;;28.00;88.00;;;;;;5012948;28;20026;-60
2022/07/02 06:55:56;;;;;;;1.88;1.77;;;28.30;85.20;;;;;;5012835;28;20029;-61
2022/07/02 06:58:21;;;;;;;3.83;1.85;;;28.80;84.40;;;;;;5012211;28;20022;-60
2022/07/02 07:00:47;;;;;;;2.47;1.70;;;29.20;83.00;;;;;;5012679;28;20033;-60
2022/07/02 07:03:12;;;;;;;2.67;2.47;;;29.40;82.00;;;;;;5012824;28;20030;-60
2022/07/02 07:05:39;;;;;;;3.55;1.70;;;30.10;81.00;;;;;;5040122;22;20092;-50
2022/07/02 07:08:05;;;;;;;2.72;2.00;;;30.20;79.20;;;;;;5032069;28;20029;-54
2022/07/02 07:10:33;;;;;;;4.75;2.53;;;30.80;77.80;;;;;;5014830;28;20401;-48
2022/07/02 07:12:59;;;;;;;3.50;1.50;;;31.50;74.90;;;;;;5032527;28;20504;-49
2022/07/02 07:15:24;;;;;;;4.05;1.95;;;31.60;74.50;;;;;;5032386;28;20100;-52
2022/07/02 07:17:50;;;;;;;2.05;1.85;;;31.80;73.50;;;;;;5032270;28;20028;-49
2022/07/02 07:20:19;;;;;;;2.90;2.15;;;32.40;72.50;;;;;;5032668;28;20044;-50
2022/07/02 07:22:44;;;;;;;1.92;1.50;;;32.80;69.90;;;;;;5032243;28;20025;-51
2022/07/02 07:25:10;;;;;;;4.60;1.80;;;32.50;69.70;;;;;;5014423;28;20469;-50
2022/07/02 07:27:35;;;;;;;6.45;1.77;;;32.80;69.30;;;;;;5030485;28;20501;-48
2022/07/02 07:30:01;;;;;;;2.15;1.98;;;32.90;67.50;;;;;;5031736;28;20052;-51
2022/07/02 07:32:26;;;;;;;3.03;1.80;;;32.60;66.40;;;;;;5031916;28;20033;-49
2022/07/02 07:34:52;;;;;;;4.63;1.60;;;32.20;66.60;;;;;;5031254;28;20025;-54
2022/07/02 07:37:17;;;;;;;5.63;2.10;;;32.20;67.00;;;;;;5030712;28;20084;-51
2022/07/02 07:39:43;;;;;;;2.45;1.50;;;32.60;66.80;;;;;;5031720;28;20493;-50
2022/07/02 07:42:08;;;;;;;3.70;1.90;;;33.00;66.40;;;;;;5031067;28;20025;-49
2022/07/02 07:44:34;;;;;;;3.90;1.75;;;33.20;66.70;;;;;;5031470;28;20025;-50
2022/07/02 07:46:59;;;;;;;4.75;1.85;;;33.60;65.20;;;;;;5029494;28;20037;-46
2022/07/02 07:49:25;;;;;;;7.35;1.80;;;33.80;64.40;;;;;;5031992;28;20433;-54
2022/07/02 07:51:51;;;;;;;2.42;1.30;;;33.80;64.00;;;;;;5030874;28;20025;-49
2022/07/02 07:54:16;;;;;;;3.72;2.15;;;34.20;64.70;;;;;;5031614;28;20028;-50
2022/07/02 07:56:43;;;;;;;4.45;1.85;;;34.90;62.40;;;;;;5031301;28;20021;-52
2022/07/02 07:59:09;;;;;;;3.55;1.90;;;34.80;60.50;;;;;;5031067;28;20021;-53
2022/07/02 08:01:35;;;;;;;2.72;2.05;;;34.70;61.40;;;;;;5031367;28;20033;-53
2022/07/02 08:04:00;;;;;;;7.85;2.90;;;34.70;59.00;;;;;;5031483;28;20029;-48
2022/07/02 08:06:26;;;;;;;3.30;1.73;;;34.50;58.80;;;;;;5013729;28;20037;-51
2022/07/02 08:08:51;;;;;;;1.98;1.58;;;34.10;58.10;;;;;;5030569;28;20033;-50
2022/07/02 08:11:17;;;;;;;3.58;1.88;;;34.10;58.50;;;;;;5031539;28;20029;-53
2022/07/02 08:13:42;;;;;;;5.30;2.28;;;34.30;58.10;;;;;;5031504;28;20021;-49
2022/07/02 08:16:08;;;;;;;4.47;1.90;;;34.30;58.20;;;;;;5031393;28;20093;-51
2022/07/02 08:18:33;;;;;;;3.03;1.45;;;34.50;58.30;;;;;;5030882;28;20029;-52
2022/07/02 08:21:00;;;;;;;2.92;1.58;;;34.20;58.00;;;;;;5031491;28;20431;-50
2022/07/02 08:23:26;;;;;;;3.83;1.17;;;34.20;58.10;;;;;;5031523;28;20033;-55
2022/07/02 08:25:54;;;;;;;4.28;1.50;;;34.20;58.20;;;;;;5031665;28;20025;-50
2022/07/02 08:28:20;;;;;;;7.72;1.70;;;33.80;55.60;;;;;;5031039;28;20021;-49
2022/07/02 08:30:46;;;;;;;6.40;1.60;;;33.30;56.80;;;;;;5031398;28;20047;-52
2022/07/02 08:33:15;;;;;;;1.92;1.02;;;32.40;57.00;;;;;;5032274;28;20049;-54
2022/07/02 08:35:41;;;;;;;5.82;1.55;;;31.50;57.30;;;;;;5033441;28;20060;-51
2022/07/02 08:38:06;;;;;;;1.20;0.80;;;30.70;59.40;;;;;;5046900;28;20036;-52
2022/07/02 08:40:32;;;;;;;6.28;1.25;;;30.20;61.50;;;;;;5053368;28;20033;-47
2022/07/02 08:43:01;;;;;;;7.07;1.15;;;30.10;61.50;;;;;;5049221;28;20021;-52
2022/07/02 08:45:31;;;;;;;3.40;1.27;;;30.10;62.00;;;;;;5026334;28;20025;-52
2022/07/02 08:47:58;;;;;;;2.03;1.10;;;29.90;61.90;;;;;;5016836;28;20140;-52
2022/07/02 08:50:24;;;;;;;6.63;1.20;;;29.80;63.10;;;;;;5035136;28;20025;-52
2022/07/02 08:52:53;;;;;;;8.65;6.78;;;29.10;64.00;;;;;;5034992;28;20095;-50
2022/07/02 08:55:20;;;;;;;6.57;2.20;;;28.80;63.60;;;;;;5035044;28;20023;-53
2022/07/02 08:57:47;;;;;;;1.83;1.20;;;28.70;63.90;;;;;;5033521;28;20029;-51
2022/07/02 09:00:15;;;;;;;1.55;0.95;;;29.00;64.10;;;;;;5034762;28;20021;-51
2022/07/02 09:02:43;;;;;;;3.20;0.80;;;29.20;63.00;;;;;;5025303;28;20048;-46
2022/07/02 09:05:09;;;;;;;5.47;0.90;;;29.30;60.90;;;;;;5034038;28;20041;-53
2022/07/02 09:07:38;;;;;;;5.07;1.20;;;29.50;61.10;;;;;;5033256;28;20029;-53
2022/07/02 09:10:04;;;;;;;1.02;0.80;;;29.50;60.90;;;;;;5021488;28;20421;-47
2022/07/02 09:12:31;;;;;;;3.92;0.82;;;29.50;60.90;;;;;;5033555;28;20033;-50
2022/07/02 09:14:57;;;;;;;10.82;0.98;;;29.50;60.80;;;;;;5034049;28;20018;-51
2022/07/02 09:17:23;;;;;;;4.15;0.63;;;29.50;59.80;;;;;;5033573;28;20032;-51
2022/07/02 09:19:48;;;;;;;3.58;0.75;;;29.40;59.60;;;;;;5033400;28;20041;-49
2022/07/02 09:22:14;;;;;;;4.05;1.20;;;29.20;61.20;;;;;;5034149;28;20037;-54
2022/07/02 09:24:44;;;;;;;1.95;0.65;;;29.20;60.70;;;;;;5016478;28;20382;-53
2022/07/02 09:27:13;;;;;;;1.40;0.63;;;29.10;59.70;;;;;;5032971;28;20025;-52
2022/07/02 09:29:52;;;;;;;2.67;1.00;;;28.90;60.70;;;;;;5032689;28;20512;-53
2022/07/02 09:32:19;;;;;;;2.05;0.60;;;28.80;60.20;;;;;;5034166;28;20025;-49
2022/07/02 09:34:50;;;;;;;0.95;0.60;;;28.70;62.00;;;;;;5033912;28;20109;-49
2022/07/02 09:37:21;;;;;;;1.00;0.68;;;28.70;62.30;;;;;;5033222;28;20469;-51
2022/07/02 09:39:49;;;;;;;4.28;0.70;;;28.50;62.30;;;;;;5034022;28;20428;-52
2022/07/02 09:42:25;;;;;;;1.17;0.68;;;28.40;64.20;;;;;;5033570;28;20516;-54
2022/07/02 09:44:50;;;;;;;1.65;1.00;;;28.30;63.50;;;;;;5033275;28;20104;-51
2022/07/02 09:47:16;;;;;;;1.65;0.85;;;28.10;63.00;;;;;;5032671;28;20160;-49
2022/07/02 09:49:47;;;;;;;3.38;1.23;;;28.00;63.30;;;;;;5032788;28;20033;-54
2022/07/02 09:52:16;;;;;;;5.68;1.00;;;27.90;64.10;;;;;;5033481;28;20032;-50
2022/07/02 09:54:43;;;;;;;2.70;1.08;;;27.80;63.60;;;;;;5015610;28;20425;-50
2022/07/02 09:57:13;;;;;;;4.32;1.20;;;27.80;63.30;;;;;;5032505;28;20079;-52
2022/07/02 09:59:40;;;;;;;1.52;0.90;;;27.90;63.80;;;;;;5033539;28;20021;-49
2022/07/02 10:02:26;;;;;;;3.22;0.82;;;28.00;64.10;;;;;;5033666;28;20079;-54
2022/07/02 10:04:56;;;;;;;1.92;0.75;;;28.10;63.90;;;;;;5033457;28;20037;-51
2022/07/02 10:07:22;;;;;;;1.42;1.00;;;27.90;64.90;;;;;;5032784;28;20029;-53
2022/07/02 10:09:49;;;;;;;1.50;0.80;;;27.60;65.30;;;;;;5033465;28;20021;-52
2022/07/02 10:12:16;;;;;;;3.92;0.95;;;27.50;66.00;;;;;;5033306;28;20507;-53
2022/07/02 10:14:46;;;;;;;2.88;1.10;;;27.30;65.20;;;;;;5033015;28;20093;-50
2022/07/02 10:17:15;;;;;;;3.47;0.85;;;27.10;65.20;;;;;;5032273;28;20108;-49
2022/07/02 10:19:42;;;;;;;4.20;0.68;;;27.10;65.00;;;;;;5033514;28;20025;-47
2022/07/02 10:22:08;;;;;;;3.50;1.20;;;27.00;64.80;;;;;;5032595;28;20087;-54
2022/07/02 10:24:36;;;;;;;10.05;1.10;;;27.10;66.20;;;;;;5035547;28;20401;-56
2022/07/02 10:27:02;;;;;;;5.80;1.05;;;27.20;64.60;;;;;;5031591;28;20136;-53
2022/07/02 10:29:28;;;;;;;3.05;0.73;;;27.10;66.60;;;;;;5033261;28;20504;-54
2022/07/02 10:32:18;;;;;;;4.30;0.90;;;27.20;67.80;;;;;;5032120;28;20044;-59
2022/07/02 10:35:10;;;;;;;1.80;0.70;;;27.20;65.80;;;;;;5031411;28;20037;-57
2022/07/02 10:37:39;;;;;;;13.20;9.77;;;26.70;68.10;;;;;;5031540;28;20025;-54
2022/07/02 10:40:06;;;;;;;2.28;1.20;;;26.90;66.10;;;;;;5032634;28;20026;-51
2022/07/02 10:42:45;;;;;;;3.53;0.85;;;26.90;66.30;;;;;;5032988;28;20029;-55
2022/07/02 10:45:29;;;;;;;0.82;0.80;;;26.80;65.00;;;;;;5012995;28;20033;-57
2022/07/02 10:48:00;;;;;;;0.73;0.52;;;26.70;65.90;;;;;;5012187;28;20029;-55
2022/07/02 10:50:35;;;;;;;4.15;1.60;;;26.80;67.30;;;;;;5029729;28;20036;-58
2022/07/02 10:53:20;;;;;;;2.53;2.05;;;27.00;65.30;;;;;;5030017;28;20092;-56
2022/07/02 10:55:52;;;;;;;0.73;0.73;;;26.90;64.30;;;;;;5031823;28;20116;-56
2022/07/02 10:58:26;;;;;;;3.00;0.80;;;26.70;65.40;;;;;;5031805;28;20065;-58
2022/07/02 11:00:52;;;;;;;3.05;1.00;;;26.70;65.00;;;;;;5031635;28;20014;-55
2022/07/02 11:03:25;;;;;;;0.63;0.63;;;26.60;66.00;;;;;;5031145;28;20030;-55
2022/07/02 11:06:00;;;;;;;1.08;0.60;;;26.60;67.10;;;;;;5032093;28;20099;-55
2022/07/02 11:08:43;;;;;;;2.53;0.95;;;26.60;66.00;;;;;;5031874;28;20076;-56
2022/07/02 11:11:11;;;;;;;2.78;0.90;;;26.50;66.30;;;;;;5014606;28;20461;-55
2022/07/02 11:14:01;;;;;;;5.78;1.67;;;26.60;66.30;;;;;;5031798;28;20500;-52
2022/07/02 11:16:37;;;;;;;1.23;0.70;;;26.50;69.60;;;;;;5028363;28;20564;-57
2022/07/02 11:19:04;;;;;;;0.80;0.80;;;26.60;69.10;;;;;;5030880;28;20045;-55
2022/07/02 11:21:30;;;;;;;1.17;1.08;;;26.60;67.30;;;;;;5032234;28;20385;-57
2022/07/02 11:23:57;;;;;;;2.58;1.30;;;26.60;67.10;;;;;;5032040;28;20029;-56
2022/07/02 11:26:27;;;;;;;0.55;0.55;;;26.60;66.80;;;;;;5031805;28;20172;-51
2022/07/02 11:28:53;;;;;;;4.38;0.75;;;26.60;67.40;;;;;;5031541;28;20057;-52
2022/07/02 11:31:22;;;;;;;3.67;0.80;;;26.60;67.70;;;;;;5031893;28;20022;-54
2022/07/02 11:33:50;;;;;;;2.45;0.63;;;26.50;66.60;;;;;;5031875;28;20032;-55
2022/07/02 11:36:17;;;;;;;1.20;0.70;;;26.30;66.60;;;;;;5014118;28;20026;-58
2022/07/02 11:38:45;;;;;;;2.03;0.68;;;26.20;66.70;;;;;;5031307;28;20490;-58
2022/07/02 11:41:21;;;;;;;0.85;0.50;;;26.00;67.40;;;;;;5032031;28;20034;-55
2022/07/02 11:43:47;;;;;;;2.38;0.93;;;26.00;69.90;;;;;;5031985;28;20032;-57
2022/07/02 11:46:16;;;;;;;3.78;0.90;;;26.00;68.20;;;;;;5031925;28;20649;-57
2022/07/02 11:48:41;;;;;;;5.63;0.95;;;26.00;67.90;;;;;;5031161;28;20040;-56
2022/07/02 11:51:07;;;;;;;0.80;0.77;;;26.10;68.00;;;;;;5032203;28;20022;-58
2022/07/02 11:53:33;;;;;;;5.03;1.02;;;26.10;67.00;;;;;;5031940;28;20471;-57
2022/07/02 11:56:06;;;;;;;2.78;0.70;;;26.00;67.70;;;;;;5031448;28;20396;-54
2022/07/02 11:58:46;;;;;;;1.77;0.60;;;26.00;68.10;;;;;;5029183;28;20033;-54
2022/07/02 12:01:19;;;;;;;3.25;0.50;;;26.00;67.30;;;;;;5031223;28;20071;-57
2022/07/02 12:03:45;;;;;;;0.80;0.50;;;26.00;68.60;;;;;;5031817;28;20033;-57
2022/07/02 12:06:11;;;;;;;0.70;0.57;;;26.10;68.50;;;;;;5031302;28;20093;-58
2022/07/02 12:08:38;;;;;;;1.95;0.80;;;26.10;69.40;;;;;;5030956;28;20033;-57
2022/07/02 12:11:16;;;;;;;3.10;0.70;;;26.30;67.50;;;;;;5031482;28;20508;-56
2022/07/02 12:13:43;;;;;;;0.40;0.40;;;26.30;66.20;;;;;;5032118;28;20030;-55
2022/07/02 12:16:15;;;;;;;0.65;0.60;;;26.30;66.20;;;;;;5029911;28;20026;-58
2022/07/02 12:18:41;;;;;;;1.27;0.50;;;26.40;66.20;;;;;;5026995;28;20029;-55
2022/07/02 12:21:14;;;;;;;0.60;0.60;;;26.40;65.40;;;;;;5030345;28;20512;-55
2022/07/02 12:23:44;;;;;;;0.75;0.47;;;26.40;65.30;;;;;;5031239;28;20104;-54
2022/07/02 12:26:10;;;;;;;0.65;0.65;;;26.40;66.00;;;;;;5031170;28;20067;-53
2022/07/02 12:31:20;;;;;;;0.52;0.50;;;26.20;65.40;;;;;;5031300;28;20400;-55
2022/07/02 12:33:55;;;;;;;1.23;0.95;;;26.10;64.80;;;;;;5030922;28;20203;-56
2022/07/02 12:36:21;;;;;;;;;;;26.10;64.30;;;;;;5031651;28;20360;-58
2022/07/02 12:38:47;;;;;;;1.77;0.50;;;26.00;64.70;;;;;;5029923;28;19953;-58
2022/07/02 12:41:12;;;;;;;2.00;0.77;;;26.00;65.40;;;;;;5013329;28;20453;-57
2022/07/02 12:43:38;;;;;;;1.52;0.43;;;26.10;65.40;;;;;;5030065;28;20072;-52
2022/07/02 12:46:05;;;;;;;0.60;0.55;;;26.20;65.50;;;;;;5028588;28;20030;-49
2022/07/02 12:48:31;;;;;;;0.45;0.40;;;26.30;64.40;;;;;;5029592;28;20009;-49
2022/07/02 12:50:58;;;;;;;1.02;0.45;;;26.40;63.50;;;;;;5030897;28;20077;-53
2022/07/02 12:53:24;;;;;;;0.65;0.60;;;26.50;63.60;;;;;;5030544;28;20017;-53
2022/07/02 12:56:02;;;;;;;0.70;0.70;;;26.50;63.70;;;;;;5030166;28;20120;-53
2022/07/02 12:58:29;;;;;;;0.57;0.50;;;26.40;65.40;;;;;;5029984;28;20030;-52